Beaumont, Texas
Current Conditions -  °F | °C
As of 11:55 PM on Wednesday 22 Oct 2014 (Local Time) from KBMT Reporting Station
Clear Clear  
Wind Chill: 63°   Ceiling: Unl
Heat Index: 63°   Visibility: 10mi
Dew Point: 56°   Wind: 3mph
Humidity: 80%   Direction: 40°NE
Pressure: 30.11"   Gusts: NA
Location:  30.09°N, 94.1°W
Report Text: KBMT 230455Z AUTO 04003KT 10SM CLR 17/14 A3011 RMK AO2 T01700136
Loading
Personal Weather Stations






























Interactive Weather Map
Tropical Storm Tracking
New forecast layout! Learn more

10-Day Weather Forecast

Advertisements
Track Severe Weather on mobile